Tiempo atmosférico en la estación meteorológica de La Vall de Boi, Lleida (1092 m.)



Fecha
DESCASC
Temp. máxima en grados centígrados (hora)
DESCASC
Temp. mínima en grados centígrados (hora)
DESCASC
Temp. media en grados centígrados
DESCASC
Racha de viento máxima en m/sg (hora)
DESCASC
Velocidad máxima media en intervalos de 10 minutos(hora)
DESCASC
Precipitaciones diarias en mm
DESCASC
Precipitaciones de 00:00 a 06:00 en mm
DESCASC
Precipitaciones de 06:00 a 12:00 en mm
DESCASC
Precipitaciones de 12:00 a 18:00 en mm
DESCASC
Precipitaciones de 18:00 a 24:00 en mm
DESCASC

Gráficas

Temp. máximas Temp. mínimas Temp. medias Precipitaciones Rachas de viento máximas Velocidades máximas media en intervalos de 10 minutos

Datos horarios

Fecha y hora oficial Temperatura (ºC) Velocidad del viento (km/h) Dirección del viento Racha (km/h) Dirección de racha Precipitación (mm) Presión (hPa) Tendencia (hPa) Humedad (%)
2021-03-05 23:00:00 5.5 0 Calma 3 Sur 0 -- -- 91
2021-03-05 22:00:00 5.9 0 Calma 8 Oeste 0 -- -- 89
2021-03-05 21:00:00 6.2 2 Sudoeste 13 Sudoeste 0 -- -- 87
2021-03-05 20:00:00 6.8 8 Oeste 21 Sudoeste 0 -- -- 83
2021-03-05 19:00:00 7.4 3 Sur 9 Sudoeste 0 -- -- 86
2021-03-05 18:00:00 8.4 4 Sudoeste 10 Norte 0.2 -- -- 83
2021-03-05 17:00:00 8.8 2 Sur 14 Sudoeste 0.2 -- -- 76
2021-03-05 16:00:00 10 6 Oeste 22 Oeste 0.2 -- -- 61
2021-03-05 15:00:00 12.4 8 Sudoeste 19 Oeste 0 -- -- 46
2021-03-05 14:00:00 12.6 12 Sudoeste 24 Sudoeste 0 -- -- 47
2021-03-05 13:00:00 13.8 15 Sudoeste 25 Sudoeste 0 -- -- 42
2021-03-05 12:00:00 12.4 15 Sudoeste 23 Oeste 0 -- -- 46
2021-03-05 11:00:00 9.4 5 Sudoeste 9 Sudoeste 0 -- -- 59
2021-03-05 10:00:00 6.3 4 Sudoeste 8 Sudoeste 0 -- -- 77
2021-03-05 09:00:00 2 0 Calma 3 Norte 0 -- -- 94
2021-03-05 08:00:00 0.6 0 Calma 4 Norte 0 -- -- 91
2021-03-05 07:00:00 0.9 0 Calma 3 Sudeste 0 -- -- 90
2021-03-05 06:00:00 2 0 Calma 2 Norte 0 -- -- 90
2021-03-05 05:00:00 2.4 0 Calma 3 Norte 0 -- -- 91
2021-03-05 04:00:00 2.5 0 Calma 3 Sudeste 0 -- -- 90
2021-03-05 03:00:00 3.8 2 Oeste 4 Sur 0 -- -- 86
2021-03-05 02:00:00 4.1 0 Calma 4 Noroeste 0 -- -- 88
2021-03-05 01:00:00 4.3 0 Calma 3 Sudeste 0 -- -- 87
2021-03-05 00:00:00 4 0 Calma 3 Sudeste 0 -- -- 87
2021-03-04 23:00:00 4.5 0 Calma 2 Este 0 -- -- 82
2021-03-04 22:00:00 6.4 0 Calma 2 Sur 0 -- -- 80
2021-03-04 21:00:00 7.4 0 Calma 9 Sudoeste 0 -- -- 77
2021-03-04 20:00:00 8.1 7 Oeste 21 Oeste 0 -- -- 74
2021-03-04 19:00:00 9 13 Oeste 27 Oeste 0 -- -- 69
2021-03-04 18:00:00 10.5 14 Oeste 30 Sudoeste 0 -- -- 62
2021-03-04 17:00:00 12 17 Sudoeste 28 Sudoeste 0 -- -- 56
2021-03-04 16:00:00 12.8 18 Sudoeste 31 Oeste 0 -- -- 54
2021-03-04 15:00:00 13.4 17 Sudoeste 31 Sudoeste 0 -- -- 52
2021-03-04 14:00:00 12.1 18 Oeste 27 Oeste 0 -- -- 58
2021-03-04 13:00:00 10.7 15 Oeste 22 Oeste 0 -- -- 62
2021-03-04 12:00:00 8.9 10 Sudoeste 17 Sudoeste 0 -- -- 68
2021-03-04 11:00:00 5 0 Calma 4 Oeste 0 -- -- 79
2021-03-04 10:00:00 2 2 Sur 4 Sur 0 -- -- 92
2021-03-04 09:00:00 -0.3 0 Calma 3 Norte 0 -- -- 93
2021-03-04 08:00:00 -0.8 0 Calma 4 Norte 0 -- -- 93
2021-03-04 07:00:00 -0.9 0 Calma 4 Sudeste 0 -- -- 91
2021-03-04 06:00:00 -0.3 0 Calma 2 Sudoeste 0 -- -- 90
2021-03-04 05:00:00 0.3 2 Nordeste 3 Nordeste 0 -- -- 92
2021-03-04 04:00:00 0.5 0 Calma 2 Norte 0 -- -- 90
2021-03-04 03:00:00 1.1 0 Calma 3 Noroeste 0 -- -- 90
2021-03-04 02:00:00 1.6 2 Norte 3 Norte 0 -- -- 89
2021-03-04 01:00:00 2.3 0 Calma 4 Sudeste 0 -- -- 87
2021-03-04 00:00:00 3 0 Calma 3 Norte 0 -- -- 87
2021-03-03 23:00:00 3.4 0 Calma 3 Sudeste 0 -- -- 85
2021-03-03 22:00:00 4.3 2 Nordeste 3 Este 0 -- -- 83
2021-03-03 21:00:00 5.2 0 Calma 3 Sudeste 0 -- -- 79
2021-03-03 20:00:00 6.7 0 Calma 3 Sur 0 -- -- 75
2021-03-03 19:00:00 8.6 0 Calma 3 Sur 0 -- -- 68
2021-03-03 18:00:00 10.9 0 Calma 12 Sudoeste 0 -- -- 58
2021-03-03 17:00:00 11.8 8 Sudoeste 13 Sudoeste 0 -- -- 53
2021-03-03 16:00:00 12.4 8 Oeste 13 Oeste 0 -- -- 47
2021-03-03 15:00:00 12.4 8 Sudoeste 14 Sudoeste 0 -- -- 48
2021-03-03 14:00:00 11.9 8 Sudoeste 12 Sudoeste 0 -- -- 49
2021-03-03 13:00:00 10.7 0 Calma 4 Sudeste 0 -- -- 54
2021-03-03 12:00:00 9.1 0 Calma 3 Sudeste 0 -- -- 62
2021-03-03 11:00:00 6.9 0 Calma 3 Sudeste 0 -- -- 73
2021-03-03 10:00:00 4.6 2 Oeste 3 Oeste 0 -- -- 83
2021-03-03 09:00:00 3.3 0 Calma 7 Sudoeste 0 -- -- 88
2021-03-03 08:00:00 2.8 0 Calma 4 Oeste 0 -- -- 87
2021-03-03 07:00:00 3.3 0 Calma 4 Sudeste 0 -- -- 84
2021-03-03 06:00:00 4.3 0 Calma 12 Nordeste 0 -- -- 82
2021-03-03 05:00:00 3.9 0 Calma 4 Oeste 0 -- -- 85
2021-03-03 04:00:00 4.2 0 Calma 3 Este 0 -- -- 84
2021-03-03 03:00:00 4.4 2 Sur 8 Oeste 0 -- -- 82
2021-03-03 02:00:00 4.5 2 Norte 4 Sur 0 -- -- 82
2021-03-03 01:00:00 4.2 3 Norte 5 Sudeste 0 -- -- 84
2021-03-03 00:00:00 4.3 0 Calma 4 Sudeste 0 -- -- 82
2021-03-02 23:00:00 4.9 0 Calma 4 Sudeste 0 -- -- 79
2021-03-02 22:00:00 5.8 2 Nordeste 4 Este 0 -- -- 76
2021-03-02 21:00:00 6.7 0 Calma 3 Sur 0 -- -- 73
2021-03-02 20:00:00 8 3 Sudoeste 15 Oeste 0 -- -- 64
2021-03-02 19:00:00 8.7 8 Oeste 20 Oeste 0 -- -- 59
2021-03-02 18:00:00 9.7 9 Sudoeste 20 Sudoeste 0 -- -- 51
2021-03-02 17:00:00 10.5 12 Sudoeste 21 Sudoeste 0 -- -- 44
2021-03-02 16:00:00 11.3 10 Sudoeste 21 Sudoeste 0 -- -- 42
2021-03-02 15:00:00 10.9 12 Oeste 22 Oeste 0 -- -- 41
2021-03-02 14:00:00 10.1 14 Oeste 25 Oeste 0 -- -- 45
2021-03-02 13:00:00 8.9 15 Oeste -- -- -- -- -- 52
2021-03-02 12:00:00 -- -- -- -- -- -- -- -- --
2021-03-02 11:00:00 6.4 9 Sudoeste 16 Sudoeste 0 -- -- 74
2021-03-02 10:00:00 5 2 Este 9 Oeste 0 -- -- 80
2021-03-02 09:00:00 2.5 4 Este 8 Sudeste 0 -- -- 93
2021-03-02 08:00:00 1.6 2 Sur 6 Sudeste 0 -- -- 94
2021-03-02 07:00:00 2.2 2 Sudeste 6 Norte 0 -- -- 93
2021-03-02 06:00:00 3.1 2 Noroeste 5 Oeste 0 -- -- 92
2021-03-02 05:00:00 2.9 4 Este 9 Este 0 -- -- 94
2021-03-02 04:00:00 2.3 2 Este 6 Sudeste 0 -- -- 94
2021-03-02 03:00:00 2.3 3 Sudeste 8 Nordeste 0 -- -- 93
2021-03-02 02:00:00 2 3 Sudoeste 10 Sudeste 0 -- -- 95
2021-03-02 01:00:00 1.4 5 Noroeste 9 Sudeste 0 -- -- 95
2021-03-02 00:00:00 1.6 3 Norte 11 Sur 0 -- -- 93
2021-03-01 23:00:00 2.2 2 Este 5 Sur 0 -- -- 89
2021-03-01 22:00:00 3.1 0 Calma 4 Norte 0 -- -- 88
2021-03-01 21:00:00 4.6 0 Calma 11 Oeste 0 -- -- 80
2021-03-01 20:00:00 7.4 6 Oeste 17 Oeste 0 -- -- 73
2021-03-01 19:00:00 8.7 13 Oeste 24 Oeste 0 -- -- 66
2021-03-01 18:00:00 10.2 10 Sudoeste 23 Sudoeste 0 -- -- 59
2021-03-01 17:00:00 11 13 Sudoeste 29 Oeste 0 -- -- 56
2021-03-01 16:00:00 12.2 15 Oeste 28 Oeste 0 -- -- 53
2021-03-01 15:00:00 11.7 19 Oeste 27 Oeste 0 -- -- 52
2021-03-01 14:00:00 11.4 17 Oeste 28 Sudoeste 0 -- -- 53
2021-03-01 13:00:00 11.3 16 Sudoeste 25 Sudoeste 0 -- -- 48
2021-03-01 12:00:00 9.1 4 Sur 13 Sudoeste 0 -- -- 53
2021-03-01 11:00:00 5.3 4 Sudeste 11 Este 0 -- -- 70
2021-03-01 10:00:00 1.9 2 Sudeste 8 Sudeste 0 -- -- 90
2021-03-01 09:00:00 -1.7 4 Sudoeste 6 Sudoeste 0 -- -- 100
2021-03-01 08:00:00 -3 3 Este 6 Sudeste 0 -- -- 98
2021-03-01 07:00:00 -3.3 0 Calma 5 Sudoeste 0 -- -- 97
2021-03-01 06:00:00 -2.7 2 Nordeste 9 Norte 0 -- -- 98
2021-03-01 05:00:00 -2.5 2 Este 6 Noroeste 0 -- -- 97
2021-03-01 04:00:00 -2.2 2 Este 6 Sudeste 0 -- -- 97
2021-03-01 03:00:00 -1.8 3 Nordeste 6 Sudeste 0 -- -- 97
2021-03-01 02:00:00 -1.2 3 Nordeste 10 Sudeste 0 -- -- 98
2021-03-01 01:00:00 -0.7 3 Nordeste 10 Noroeste 0 -- -- 97
2021-03-01 00:00:00 -0.4 3 Este 8 Sudeste 0 -- -- 97
2021-02-28 23:00:00 0.4 3 Nordeste 7 Norte 0 -- -- 97
2021-02-28 22:00:00 1.3 0 Calma 5 Sudeste 0 -- -- 93
2021-02-28 21:00:00 3 2 Noroeste 5 Sudeste 0 -- -- 92
2021-02-28 20:00:00 4.7 0 Calma 5 Sudeste 0 -- -- 89
2021-02-28 19:00:00 5.6 3 Sudoeste 9 Oeste 0 -- -- 88
2021-02-28 18:00:00 6.4 0 Calma 12 Sudoeste 0 -- -- 86
2021-02-28 17:00:00 6.8 5 Sudoeste 13 Sudoeste 0 -- -- 84
2021-02-28 16:00:00 7.2 8 Sudoeste 13 Sudoeste 0 -- -- 83
2021-02-28 15:00:00 6.1 9 Sudoeste 19 Sudoeste 0.2 -- -- 89
2021-02-28 14:00:00 6.4 3 Este 7 Este 0 -- -- 81
2021-02-28 13:00:00 4.3 2 Sudeste 5 Este 0.2 -- -- 84
2021-02-28 12:00:00 3 4 Este 8 Este 0 -- -- 91
2021-02-28 11:00:00 2.1 0 Calma 5 Nordeste 0.2 -- -- 94
2021-02-28 10:00:00 1.3 0 Calma 5 Noroeste 0 -- -- 94
2021-02-28 09:00:00 1 2 Nordeste 4 Nordeste 1.6 -- -- 93
2021-02-28 08:00:00 1.7 0 Calma 19 Sudoeste 0.2 -- -- 89
2021-02-28 07:00:00 1.8 5 Sudoeste 15 Oeste 0 -- -- 77
2021-02-28 06:00:00 0.9 4 Oeste 8 Oeste 0 -- -- 78
2021-02-28 05:00:00 0.3 3 Noroeste 6 Sudeste 0 -- -- 78
2021-02-28 04:00:00 -1.2 0 Calma 5 Norte 0 -- -- 84
2021-02-28 03:00:00 -1.7 0 Calma 5 Nordeste 0 -- -- 81
2021-02-28 02:00:00 -1.3 0 Calma 5 Sudeste 0 -- -- 81
2021-02-28 01:00:00 -0.7 0 Calma 4 Sudeste 0 -- -- 77
2021-02-28 00:00:00 0.4 0 Calma 3 Sur 0 -- -- 72
2021-02-27 23:00:00 2.4 0 Calma 9 Sudoeste 0 -- -- 61
2021-02-27 22:00:00 5.2 2 Sudeste 13 Este 0 -- -- 48
2021-02-27 21:00:00 7.3 3 Nordeste 16 Este 0 -- -- 37
2021-02-27 20:00:00 8.9 8 Nordeste 21 Nordeste 0 -- -- 33
2021-02-27 19:00:00 11 12 Nordeste 25 Nordeste 0 -- -- 28
2021-02-27 18:00:00 12.6 13 Norte 34 Norte 0 -- -- 25
2021-02-27 17:00:00 15.1 9 Nordeste 32 Nordeste 0 -- -- 24
2021-02-27 16:00:00 15.8 17 Nordeste 39 Este 0 -- -- 21
2021-02-27 15:00:00 16.2 19 Nordeste 41 Este 0 -- -- 20
2021-02-27 14:00:00 16.5 21 Nordeste 35 Nordeste 0 -- -- 19
2021-02-27 13:00:00 16.7 19 Nordeste 35 Nordeste 0 -- -- 18
2021-02-27 12:00:00 15.9 10 Nordeste 30 Este 0 -- -- 18
2021-02-27 11:00:00 10.7 6 Sudoeste 15 Sudoeste 0 -- -- 41
2021-02-27 10:00:00 4.6 3 Sudeste 7 Sudeste 0 -- -- 68
2021-02-27 09:00:00 -1.3 3 Oeste 9 Sudeste 0 -- -- 89
2021-02-27 08:00:00 -2.3 2 Este 6 Sur 0 -- -- 89
2021-02-27 07:00:00 -2.3 2 Norte 8 Sudeste 0 -- -- 89
2021-02-27 06:00:00 -2.1 0 Calma 6 Norte 0 -- -- 87
2021-02-27 05:00:00 -1.8 2 Nordeste 5 Noroeste 0 -- -- 87
2021-02-27 04:00:00 -1.6 2 Nordeste 4 Sudeste 0 -- -- 86
2021-02-27 03:00:00 -1.2 0 Calma 4 Sudeste 0 -- -- 87
2021-02-27 02:00:00 -0.4 2 Este 5 Sudeste 0 -- -- 83
2021-02-27 01:00:00 -0.2 0 Calma 4 Sudeste 0 -- -- 86
2021-02-27 00:00:00 0.7 0 Calma 4 Este 0 -- -- 86
2021-02-26 23:00:00 1.6 0 Calma 3 Norte 0 -- -- 84
2021-02-26 22:00:00 2.6 0 Calma 4 Norte 0 -- -- 80
2021-02-26 21:00:00 4.2 3 Nordeste 6 Sudeste 0 -- -- 76
2021-02-26 20:00:00 6 0 Calma 4 Sudeste 0 -- -- 71
2021-02-26 19:00:00 9 0 Calma 6 Oeste 0 -- -- 61
2021-02-26 18:00:00 13.2 2 Sur 19 Sudoeste 0 -- -- 48
2021-02-26 17:00:00 16 12 Sudoeste 24 Sudoeste 0 -- -- 36
2021-02-26 16:00:00 17.6 14 Sudoeste 22 Sudoeste 0 -- -- 30
2021-02-26 15:00:00 18.1 12 Sudoeste 19 Sudoeste 0 -- -- 16
2021-02-26 14:00:00 17.5 13 Sudoeste 22 Sudoeste 0 -- -- 20
2021-02-26 13:00:00 17 14 Sudoeste 21 Sudoeste 0 -- -- 28
2021-02-26 12:00:00 13.8 7 Sudoeste 14 Sudoeste 0 -- -- 35
2021-02-26 11:00:00 9.6 2 Sudeste 5 Sudoeste 0 -- -- 51
2021-02-26 10:00:00 3.6 0 Calma 3 Sudeste 0 -- -- 86
2021-02-26 09:00:00 -0.4 0 Calma 4 Sudeste 0 -- -- 93
2021-02-26 08:00:00 -1 0 Calma 4 Sudeste 0 -- -- 93
2021-02-26 07:00:00 -1.1 0 Calma 4 Sudeste 0 -- -- 94
2021-02-26 06:00:00 -1 0 Calma 3 Este 0 -- -- 92
2021-02-26 05:00:00 -0.4 0 Calma 4 Sudeste 0 -- -- 92
2021-02-26 04:00:00 -0.2 0 Calma 5 Sudeste 0 -- -- 91
2021-02-26 03:00:00 -0.1 0 Calma 4 Norte 0 -- -- 91
2021-02-26 02:00:00 0.4 0 Calma 4 Sudeste 0 -- -- 91
2021-02-26 01:00:00 0.8 0 Calma 2 Sudeste 0 -- -- 90
2021-02-26 00:00:00 1.4 0 Calma 3 Sudeste 0 -- -- 88
2021-02-25 23:00:00 2.3 0 Calma 2 Sudeste 0 -- -- 86
2021-02-25 22:00:00 3.3 0 Calma 3 Nordeste 0 -- -- 81
2021-02-25 21:00:00 4.6 3 Este 5 Sudeste 0 -- -- 76
2021-02-25 20:00:00 6.9 0 Calma 3 Noroeste 0 -- -- 68
2021-02-25 19:00:00 10.8 0 Calma 14 Oeste 0 -- -- 56
2021-02-25 18:00:00 13.9 10 Oeste 18 Oeste 0 -- -- 35
2021-02-25 17:00:00 15 13 Oeste 23 Oeste 0 -- -- 31
2021-02-25 16:00:00 16 11 Oeste 23 Sudoeste 0 -- -- 26
2021-02-25 15:00:00 17.1 14 Sudoeste 23 Sudoeste 0 -- -- 22
2021-02-25 14:00:00 16 14 Oeste 21 Oeste 0 -- -- 31
2021-02-25 13:00:00 14.3 13 Sudoeste 21 Sudoeste 0 -- -- 35
2021-02-25 12:00:00 11.3 4 Sudeste 14 Sudoeste 0 -- -- 37
2021-02-25 11:00:00 7 3 Sudoeste 6 Sur 0 -- -- 60
2021-02-25 10:00:00 2.2 0 Calma 6 Sudoeste 0 -- -- 77
2021-02-25 09:00:00 -2.3 0 Calma 5 Norte 0 -- -- 97
2021-02-25 08:00:00 -3.2 2 Norte 5 Norte 0 -- -- 94
2021-02-25 07:00:00 -2.9 0 Calma 4 Este 0 -- -- 94
2021-02-25 06:00:00 -2.6 0 Calma 5 Sudeste 0 -- -- 93
2021-02-25 05:00:00 -2.1 0 Calma 8 Sudeste 0 -- -- 93
2021-02-25 04:00:00 -1.4 0 Calma 5 Este 0 -- -- 93
2021-02-25 03:00:00 -1 2 Sudeste 5 Sudeste 0 -- -- 92
2021-02-25 02:00:00 -0.4 2 Nordeste 5 Norte 0 -- -- 92
2021-02-25 01:00:00 0.2 2 Este 6 Sudeste 0 -- -- 91
2021-02-25 00:00:00 1 2 Nordeste 5 Sudeste 0 -- -- 91
2021-02-24 23:00:00 1.8 0 Calma 6 Sudeste 0 -- -- 90
2021-02-24 22:00:00 2.8 2 Nordeste 4 Sudeste 0 -- -- 89
2021-02-24 21:00:00 4.1 0 Calma 3 Norte 0 -- -- 84
2021-02-24 20:00:00 5.8 0 Calma 5 Sur 0 -- -- 78
2021-02-24 19:00:00 8.2 3 Oeste 6 Sudoeste 0 -- -- 71
2021-02-24 18:00:00 11.9 4 Sudoeste 15 Sudoeste 0 -- -- 57
2021-02-24 17:00:00 16.5 10 Sudoeste -- -- -- -- -- 35
2021-02-24 16:00:00 -- -- -- -- -- -- -- -- --
2021-02-24 15:00:00 17.6 10 Sudoeste 24 Sudoeste 0 -- -- 36
2021-02-24 14:00:00 17.1 13 Sudoeste 22 Sudoeste 0 -- -- 36
2021-02-24 13:00:00 16.2 9 Sudoeste 18 Sudoeste 0 -- -- 43
2021-02-24 12:00:00 13.3 6 Sudoeste 15 Sudoeste 0 -- -- 58
2021-02-24 11:00:00 9.6 2 Sur 4 Sur 0 -- -- 77
2021-02-24 10:00:00 4.7 0 Calma 5 Sudeste 0 -- -- 100
2021-02-24 09:00:00 0.3 0 Calma 4 Sudeste 0 -- -- 100
2021-02-24 08:00:00 -0.7 0 Calma 4 Sudeste 0 -- -- 100
2021-02-24 07:00:00 -0.3 0 Calma 3 Norte 0 -- -- 100
2021-02-24 06:00:00 -0.3 0 Calma 4 Sudeste 0 -- -- 100
2021-02-24 05:00:00 0 0 Calma 4 Norte 0 -- -- 100
2021-02-24 04:00:00 0.2 0 Calma 4 Sudeste 0 -- -- 99
2021-02-24 03:00:00 0.6 0 Calma 6 Noroeste 0 -- -- 99
2021-02-24 02:00:00 1.2 2 Nordeste 6 Sudoeste 0 -- -- 99
2021-02-24 01:00:00 1.7 0 Calma 6 Sudeste 0 -- -- 98
2021-02-24 00:00:00 2.4 0 Calma 4 Sudeste 0 -- -- 99
2021-02-23 23:00:00 2.7 0 Calma 4 Sudeste 0 -- -- 95
2021-02-23 22:00:00 3.6 0 Calma 4 Sudeste 0 -- -- 95
2021-02-23 21:00:00 4.5 0 Calma 3 Noroeste 0 -- -- 92
2021-02-23 20:00:00 6.2 0 Calma 3 Noroeste 0 -- -- 87
2021-02-23 19:00:00 8.6 2 Oeste 7 Sudoeste 0 -- -- 81
2021-02-23 18:00:00 11.2 2 Sudoeste 11 Sudoeste 0 -- -- 72
2021-02-23 17:00:00 11.5 6 Oeste 11 Oeste 0 -- -- 67
2021-02-23 16:00:00 11.6 2 Sudoeste -- -- -- -- -- 68
2021-02-23 15:00:00 11.9 7 Sudoeste 21 Sudoeste 0 -- -- 67
2021-02-23 14:00:00 11.9 8 Sudoeste 21 Sudoeste 0 -- -- 71
2021-02-23 13:00:00 10.6 13 Oeste 23 Oeste 0 -- -- 79
2021-02-23 12:00:00 10 14 Oeste 21 Oeste 0 -- -- 80
2021-02-23 11:00:00 8.1 2 Sudeste 7 Este 0 -- -- 87
2021-02-23 10:00:00 6.4 2 Nordeste 6 Sudeste 0 -- -- 97
2021-02-23 09:00:00 5.2 2 Sur 5 Sudeste 0 -- -- 100
2021-02-23 08:00:00 5 0 Calma 8 Sudeste 0 -- -- 100
2021-02-23 07:00:00 5.1 2 Sudoeste 7 Este 0 -- -- 100
2021-02-23 06:00:00 5.2 3 Norte 9 Sudeste 0.2 -- -- 100
2021-02-23 05:00:00 5.2 2 Este 5 Este 0 -- -- 100
2021-02-23 04:00:00 5.2 0 Calma 5 Sudeste 0 -- -- 100
2021-02-23 03:00:00 5.3 3 Sudeste 6 Este 0 -- -- 100
2021-02-23 02:00:00 5.3 3 Sudeste 5 Nordeste 0.2 -- -- 100
2021-02-23 01:00:00 5.4 0 Calma 4 Nordeste 0.2 -- -- 100
2021-02-23 00:00:00 5.4 0 Calma 5 Sur 1.2 -- -- 100
2021-02-22 23:00:00 5.4 0 Calma 6 Nordeste 0.2 -- -- 100
2021-02-22 22:00:00 5.5 2 Noroeste 6 Oeste 0.2 -- -- 99
2021-02-22 21:00:00 5.7 3 Oeste 9 Nordeste 0.2 -- -- 99
2021-02-22 20:00:00 5.9 2 Sudeste 5 Oeste 0.2 -- -- 98
2021-02-22 19:00:00 6.3 2 Sudoeste 8 Sur 0.2 -- -- 97
2021-02-22 18:00:00 6.5 2 Este 5 Sudeste 0.6 -- -- 96
2021-02-22 17:00:00 6.8 3 Este 5 Este 0.6 -- -- 92
2021-02-22 16:00:00 7 0 Calma 7 Nordeste 0.4 -- -- 93
2021-02-22 15:00:00 6.9 3 Este 7 Sudoeste 0.4 -- -- 90
2021-02-22 14:00:00 6.6 3 Sudoeste 5 Este 0.8 -- -- 92
2021-02-22 13:00:00 6.1 3 Norte 7 Norte 2.4 -- -- 93
2021-02-22 12:00:00 6.3 3 Sudoeste 27 Oeste 2.4 -- -- 90
2021-02-22 11:00:00 6.8 14 Oeste 31 Sudoeste 4.2 -- -- 87
2021-02-22 10:00:00 6.8 8 Sudoeste 33 Oeste 5.2 -- -- 89
2021-02-22 09:00:00 6.9 10 Oeste 32 Sudoeste 5.6 -- -- 87
2021-02-22 08:00:00 7.8 16 Oeste 48 Oeste 2 -- -- 80
2021-02-22 07:00:00 9.3 14 Oeste 37 Oeste 0 -- -- 69
2021-02-22 06:00:00 7.8 6 Noroeste 34 Oeste 1 -- -- 85
2021-02-22 05:00:00 6.6 8 Oeste 21 Oeste 2.4 -- -- 98
2021-02-22 04:00:00 6.2 3 Nordeste 8 Noroeste 3.2 -- -- 98
2021-02-22 03:00:00 6.3 3 Sudoeste 11 Norte 1.8 -- -- 97
2021-02-22 02:00:00 6.4 4 Sudoeste 9 Sudeste 1 -- -- 95
2021-02-22 01:00:00 6.8 3 Nordeste 12 Sudeste 1 -- -- 93
2021-02-22 00:00:00 7.5 0 Calma 7 Norte 1.2 -- -- 89
2021-02-21 23:00:00 9.3 5 Oeste 31 Oeste 0.4 -- -- 78
2021-02-21 22:00:00 12.5 10 Nordeste 32 Norte 0 -- -- 45
2021-02-21 21:00:00 13.1 11 Noroeste 40 Norte 0 -- -- 40
2021-02-21 20:00:00 13 6 Norte 35 Nordeste 0 -- -- 41
2021-02-21 19:00:00 13.5 10 Norte 38 Nordeste 0 -- -- 39
2021-02-21 18:00:00 13.3 12 Norte 33 Norte 0 -- -- 40
2021-02-21 17:00:00 13.1 7 Nordeste 32 Nordeste 0 -- -- 41
2021-02-21 16:00:00 14.4 12 Oeste 44 Oeste 0 -- -- 36
2021-02-21 15:00:00 14.5 15 Oeste 40 Oeste 0 -- -- 34
2021-02-21 14:00:00 15.9 6 Sur 37 Nordeste 0 -- -- 31
2021-02-21 13:00:00 15.4 10 Nordeste 37 Este 0 -- -- 32
2021-02-21 12:00:00 14.8 6 Sur 22 Oeste 0 -- -- 32
2021-02-21 11:00:00 9.6 5 Sur 18 Oeste 0 -- -- 43
2021-02-21 10:00:00 5 4 Sudeste 12 Norte 0 -- -- 61
2021-02-21 09:00:00 1 5 Oeste 18 Noroeste 0 -- -- 79
2021-02-21 08:00:00 -0.9 5 Este 11 Noroeste 0 -- -- 83
2021-02-21 07:00:00 -0.8 5 Oeste 14 Noroeste 0 -- -- 82
2021-02-21 06:00:00 -0.7 3 Nordeste 10 Sudeste 0 -- -- 82
2021-02-21 05:00:00 -0.8 6 Noroeste 12 Noroeste 0 -- -- 84
2021-02-21 04:00:00 0 3 Sur 13 Sudeste 0 -- -- 79
2021-02-21 03:00:00 0.3 8 Noroeste 13 Sur 0 -- -- 81
2021-02-21 02:00:00 0.4 3 Norte 10 Sudeste 0 -- -- 80
2021-02-21 01:00:00 0.9 3 Nordeste 9 Sudeste 0 -- -- 80
2021-02-21 00:00:00 1.3 3 Norte 8 Norte 0 -- -- 79
2021-02-20 23:00:00 2.1 4 Norte 8 Sudeste 0 -- -- 76
2021-02-20 22:00:00 2.6 3 Sur 8 Sudeste 0 -- -- 75
2021-02-20 21:00:00 4.6 3 Nordeste 8 Noroeste 0 -- -- 68
2021-02-20 20:00:00 6.6 0 Calma 6 Sudeste 0 -- -- 57
2021-02-20 19:00:00 10.2 2 Sudoeste 15 Oeste 0 -- -- 46
2021-02-20 18:00:00 13.9 10 Oeste 26 Oeste 0 -- -- 28
2021-02-20 17:00:00 15.5 12 Oeste 24 Oeste 0 -- -- 29
2021-02-20 16:00:00 15.1 13 Oeste 26 Sudoeste 0 -- -- 31
2021-02-20 15:00:00 15.6 14 Oeste 30 Sudoeste 0 -- -- 27
2021-02-20 14:00:00 16.3 14 Oeste 30 Oeste 0 -- -- 25
2021-02-20 13:00:00 16 12 Sudoeste 27 Sudoeste 0 -- -- 29
2021-02-20 12:00:00 14.2 14 Sudoeste 23 Sudoeste 0 -- -- 39
2021-02-20 11:00:00 9.1 3 Oeste 12 Oeste 0 -- -- 57
2021-02-20 10:00:00 3.7 2 Sudeste 5 Sur 0 -- -- 80
2021-02-20 09:00:00 -1.6 0 Calma 5 Sur 0 -- -- 95
2021-02-20 08:00:00 -2.2 0 Calma 4 Este 0 -- -- 95
2021-02-20 07:00:00 -2 0 Calma 6 Noroeste 0 -- -- 94
2021-02-20 06:00:00 -1.9 0 Calma 5 Sudeste 0 -- -- 93
2021-02-20 05:00:00 -1.8 2 Noroeste 6 Sudoeste 0 -- -- 93
2021-02-20 04:00:00 -1.5 2 Nordeste 4 Sudeste 0 -- -- 93
2021-02-20 03:00:00 -1.2 0 Calma 5 Norte 0 -- -- 92
2021-02-20 02:00:00 -0.8 0 Calma 3 Sudeste 0 -- -- 89
2021-02-20 01:00:00 -0.3 0 Calma 3 Sudeste 0 -- -- 89
2021-02-20 00:00:00 0.3 0 Calma 4 Sudeste 0 -- -- 87
2021-02-19 23:00:00 0.9 0 Calma 3 Sudeste 0 -- -- 83
2021-02-19 22:00:00 1.9 0 Calma 6 Sudeste 0 -- -- 80
2021-02-19 21:00:00 3.2 2 Nordeste 3 Norte 0 -- -- 75
2021-02-19 20:00:00 4.8 0 Calma 5 Sudeste 0 -- -- 69
2021-02-19 19:00:00 8 0 Calma 15 Oeste 0 -- -- 61
2021-02-19 18:00:00 12.1 12 Oeste 26 Sudoeste 0 -- -- 42
2021-02-19 17:00:00 14.2 14 Sudoeste 33 Sudoeste 0 -- -- 36
2021-02-19 16:00:00 15.1 17 Sudoeste 32 Sudoeste 0 -- -- 35
2021-02-19 15:00:00 15.5 15 Sudoeste 32 Sudoeste 0 -- -- 34
2021-02-19 14:00:00 15.2 17 Sudoeste 31 Sudoeste 0 -- -- 36
2021-02-19 13:00:00 17.1 10 Sudoeste 24 Sudoeste 0 -- -- 33
2021-02-19 12:00:00 14 4 Sur -- -- -- -- -- 48
2021-02-19 11:00:00 -- 3 Este 8 Noroeste 0 -- -- --
2021-02-19 10:00:00 2.8 0 Calma 3 Sur 0 -- -- 87
2021-02-19 09:00:00 -1.2 0 Calma 4 Noroeste 0 -- -- 96
2021-02-19 08:00:00 -1.6 0 Calma 5 Sudeste 0 -- -- 95
2021-02-19 07:00:00 -1.2 0 Calma 3 Sudeste 0 -- -- 94
2021-02-19 06:00:00 -1.1 0 Calma 3 Nordeste 0 -- -- 94
2021-02-19 05:00:00 -0.8 0 Calma 2 Este 0 -- -- 93
2021-02-19 04:00:00 -0.3 0 Calma 3 Sudeste 0 -- -- 91
2021-02-19 03:00:00 0.2 0 Calma 4 Sudeste 0 -- -- 90
2021-02-19 02:00:00 0.6 2 Este 5 Sudeste 0 -- -- 86
2021-02-19 01:00:00 1.4 0 Calma 6 Norte 0 -- -- 84
2021-02-19 00:00:00 2.7 0 Calma 4 Norte 0 -- -- 82
2021-02-18 23:00:00 3.7 0 Calma 5 Sudeste 0 -- -- 79
2021-02-18 22:00:00 3.6 2 Nordeste 9 Noroeste 0 -- -- 76
2021-02-18 21:00:00 3.5 2 Noroeste 4 Sudeste 0 -- -- 75
2021-02-18 20:00:00 5.1 3 Noroeste 6 Sudeste 0 -- -- 68
2021-02-18 19:00:00 7.8 0 Calma 13 Sudoeste 0 -- -- 58
2021-02-18 18:00:00 11.7 4 Sudoeste 24 Sudoeste 0 -- -- 41
2021-02-18 17:00:00 15.6 12 Sudoeste 27 Sudoeste 0 -- -- 30
2021-02-18 16:00:00 15.8 16 Sudoeste 35 Oeste 0 -- -- 31
2021-02-18 15:00:00 16.2 14 Sudoeste 28 Oeste 0 -- -- 32
2021-02-18 14:00:00 14.8 15 Sudoeste 31 Sur 0 -- -- 35
2021-02-18 13:00:00 14.9 15 Sudoeste 29 Oeste 0 -- -- 38
2021-02-18 12:00:00 13.5 9 Sudoeste 17 Sudoeste 0 -- -- 47
2021-02-18 11:00:00 9 5 Sudeste 15 Sudoeste 0 -- -- 63
2021-02-18 10:00:00 4 0 Calma 4 Sudeste 0 -- -- 87
2021-02-18 09:00:00 0 2 Sur 6 Este 0 -- -- 96
2021-02-18 08:00:00 -0.6 2 Noroeste 5 Norte 0 -- -- 96
2021-02-18 07:00:00 -0.1 0 Calma 7 Este 0 -- -- 96
2021-02-18 06:00:00 0.5 0 Calma 4 Norte 0 -- -- 95
2021-02-18 05:00:00 1.2 0 Calma 4 Sudeste 0 -- -- 95
2021-02-18 04:00:00 1.6 2 Este 5 Sudeste 0 -- -- 93
2021-02-18 03:00:00 2.4 0 Calma 4 Sudeste 0 -- -- 91
2021-02-18 02:00:00 3.3 0 Calma 6 Sudeste 0 -- -- 90
2021-02-18 01:00:00 4.4 4 Nordeste 7 Este 0 -- -- 88
2021-02-18 00:00:00 6 0 Calma 9 Sudoeste 0 -- -- 81
2021-02-17 23:00:00 6.7 2 Norte 8 Oeste 0 -- -- 80
2021-02-17 22:00:00 6.7 0 Calma 3 Norte 0 -- -- 81
2021-02-17 21:00:00 6.9 2 Sur 8 Nordeste 0 -- -- 79
2021-02-17 20:00:00 7.3 0 Calma 6 Sudeste 0 -- -- 75
2021-02-17 19:00:00 8.7 3 Sudeste 14 Oeste 0 -- -- 67
2021-02-17 18:00:00 11.4 9 Oeste 20 Sudoeste 0 -- -- 58
2021-02-17 17:00:00 14.4 13 Sudoeste 30 Sudoeste 0 -- -- 45
2021-02-17 16:00:00 14.1 14 Sudoeste 27 Sudoeste 0 -- -- 43
2021-02-17 15:00:00 16 13 Sudoeste 23 Sudoeste 0 -- -- 38
2021-02-17 14:00:00 15.3 9 Sur 22 Sudeste 0 -- -- 41
2021-02-17 13:00:00 14.6 11 Sudoeste 22 Oeste 0 -- -- 41
2021-02-17 12:00:00 9.3 3 Este 8 Este 0 -- -- 66
2021-02-17 11:00:00 5 4 Nordeste 9 Nordeste 0 -- -- 79
2021-02-17 10:00:00 3.8 2 Sudeste 6 Sur 0 -- -- 89
2021-02-17 09:00:00 -0.6 3 Este 6 Sudeste 0 -- -- 97
2021-02-17 08:00:00 -0.9 0 Calma 4 Sudoeste 0 -- -- 95
2021-02-17 07:00:00 -0.5 0 Calma 4 Sudeste 0 -- -- 94
2021-02-17 06:00:00 0.2 0 Calma 3 Sudeste 0 -- -- 93
2021-02-17 05:00:00 0.4 0 Calma 5 Noroeste 0 -- -- 92
2021-02-17 04:00:00 0.6 0 Calma 5 Este 0 -- -- 91
2021-02-17 03:00:00 0.9 0 Calma 5 Sudeste 0 -- -- 89
2021-02-17 02:00:00 1.3 0 Calma 4 Este 0 -- -- 87
2021-02-17 01:00:00 2.3 0 Calma 3 Noroeste 0 -- -- 83
2021-02-17 00:00:00 3.2 3 Norte 7 Sudeste 0 -- -- 79
2021-02-16 23:00:00 3.8 3 Norte 7 Sudeste 0 -- -- 77
2021-02-16 22:00:00 5 2 Nordeste 5 Norte 0 -- -- 72
2021-02-16 21:00:00 7.1 2 Sudeste 6 Sur 0 -- -- 64
2021-02-16 20:00:00 9.7 2 Este 9 Sudoeste 0 -- -- 52
2021-02-16 19:00:00 12.7 5 Sudoeste 19 Sudoeste 0 -- -- 36
2021-02-16 18:00:00 15 11 Oeste 28 Sudoeste 0 -- -- 30
2021-02-16 17:00:00 17.6 14 Sudoeste 50 Sudoeste 0 -- -- 26
2021-02-16 16:00:00 19.2 14 Sudoeste 35 Sur 0 -- -- 24
2021-02-16 15:00:00 18.8 16 Sur 27 Oeste 0 -- -- 29
2021-02-16 14:00:00 14.5 12 Sudoeste 22 Sudoeste 0 -- -- 47
2021-02-16 13:00:00 11.8 4 Sudeste 10 Sudoeste 0 -- -- 54
2021-02-16 12:00:00 7.7 5 Sudoeste 12 Sudoeste 0 -- -- 67
2021-02-16 11:00:00 4.2 3 Sudeste 14 Este 0 -- -- 82
2021-02-16 10:00:00 0.5 4 Sur 8 Sudoeste 0 -- -- 99
2021-02-16 09:00:00 -2.5 2 Sur 6 Sudeste 0 -- -- 99
2021-02-16 08:00:00 -3.2 0 Calma 4 Nordeste 0 -- -- 97
2021-02-16 07:00:00 -2.9 0 Calma 4 Norte 0 -- -- 97
2021-02-16 06:00:00 -2.4 0 Calma 3 Sur 0 -- -- 97
2021-02-16 05:00:00 -1.8 0 Calma 3 Este 0 -- -- 97
2021-02-16 04:00:00 -1.2 0 Calma 5 Sudeste 0 -- -- 96
2021-02-16 03:00:00 -0.5 0 Calma 5 Oeste 0 -- -- 95
2021-02-16 02:00:00 0.2 3 Este 4 Norte 0 -- -- 93
2021-02-16 01:00:00 1.1 0 Calma 4 Sudeste 0 -- -- 91
2021-02-16 00:00:00 2.6 0 Calma 9 Nordeste 0 -- -- 87
2021-02-15 23:00:00 4.8 5 Nordeste 10 Nordeste 0 -- -- 80
2021-02-15 22:00:00 5.6 6 Este 12 Este 0 -- -- 82
2021-02-15 21:00:00 5.3 0 Calma 3 Sur 0 -- -- 87
2021-02-15 20:00:00 5.3 0 Calma 7 Sudeste 0 -- -- 85
2021-02-15 19:00:00 6.2 5 Sudoeste 26 Oeste 0 -- -- 80
2021-02-15 18:00:00 7.2 15 Oeste 24 Sudoeste 0 -- -- 76
2021-02-15 17:00:00 9.8 12 Oeste 24 Sudoeste 0 -- -- 67
2021-02-15 16:00:00 9.6 15 Oeste 25 Sudoeste 0 -- -- 67
2021-02-15 15:00:00 10.1 15 Sudoeste 25 Oeste 0 -- -- 65
2021-02-15 14:00:00 9.7 14 Oeste 27 Sudoeste 0 -- -- 64
2021-02-15 13:00:00 9.5 16 Sudoeste 24 Sudoeste 0 -- -- 65
2021-02-15 12:00:00 8.6 17 Sudoeste 26 Oeste 0 -- -- 68
2021-02-15 11:00:00 6.5 4 Sur 9 Sur 0 -- -- 71
2021-02-15 10:00:00 3.3 3 Sudeste 4 Sudeste 0 -- -- 87
2021-02-15 09:00:00 -0.1 2 Sur 5 Este 0 -- -- 95
2021-02-15 08:00:00 0.7 0 Calma 4 Oeste 0 -- -- 92
2021-02-15 07:00:00 2.3 0 Calma 7 Nordeste 0 -- -- 88
2021-02-15 06:00:00 2.7 3 Nordeste 6 Nordeste 0 -- -- 97
2021-02-15 05:00:00 3.2 3 Sudoeste 7 Sudoeste 0 -- -- 99
2021-02-15 04:00:00 3.3 5 Sudoeste 12 Sudoeste 0 -- -- 99
2021-02-15 03:00:00 3.4 8 Sudoeste 11 Sudoeste 0 -- -- 99
2021-02-15 02:00:00 3.6 7 Oeste 15 Sudoeste 0 -- -- 99
2021-02-15 01:00:00 3.8 10 Sudoeste 14 Sudoeste 0 -- -- 98
2021-02-15 00:00:00 4.2 8 Sudoeste 12 Sudoeste 0 -- -- 97
2021-02-14 23:00:00 4.5 6 Oeste 10 Sudoeste 0 -- -- 96
2021-02-14 22:00:00 4.7 6 Oeste 13 Sudoeste 0 -- -- 94
2021-02-14 21:00:00 5.1 9 Oeste 17 Oeste 0 -- -- 91
2021-02-14 20:00:00 5.5 10 Oeste 18 Oeste 0 -- -- 88
2021-02-14 19:00:00 5.9 10 Oeste 20 Oeste 0 -- -- 84
2021-02-14 18:00:00 6.7 13 Oeste 27 Sudoeste 0 -- -- 79
2021-02-14 17:00:00 7.7 15 Oeste 26 Sudoeste 0 -- -- 72
2021-02-14 16:00:00 9.5 15 Sudoeste 24 Sudoeste 0 -- -- 62
2021-02-14 15:00:00 10.1 14 Sudoeste 27 Sudoeste 0 -- -- 58
2021-02-14 14:00:00 8.9 13 Sudoeste 24 Sudoeste 0 -- -- 59
2021-02-14 13:00:00 10.1 15 Sudoeste 24 Sudoeste 0 -- -- 54
2021-02-14 12:00:00 8.2 3 Sur 12 Sudoeste 0 -- -- 58
2021-02-14 11:00:00 4.8 3 Sudeste 8 Sudoeste 0 -- -- 63
2021-02-14 10:00:00 0.2 3 Sudoeste 8 Sudoeste 0 -- -- 84
2021-02-14 09:00:00 -3.5 0 Calma 4 Sudeste 0 -- -- 95
2021-02-14 08:00:00 -3.7 0 Calma 3 Este 0 -- -- 93
2021-02-14 07:00:00 -3.3 3 Nordeste 5 Sudoeste 0 -- -- 93
2021-02-14 06:00:00 -3.1 0 Calma 3 Norte 0 -- -- 93
2021-02-14 05:00:00 -2.7 0 Calma 5 Este 0 -- -- 92
2021-02-14 04:00:00 -2.4 2 Este 4 Sudeste 0 -- -- 90
2021-02-14 03:00:00 -1.9 0 Calma 4 Norte 0 -- -- 89
2021-02-14 02:00:00 -1.3 0 Calma 5 Sudeste 0 -- -- 87
2021-02-14 01:00:00 -0.5 0 Calma 7 Sudeste 0 -- -- 83
2021-02-14 00:00:00 0.5 2 Este 5 Sudeste 0 -- -- 80
2021-02-13 23:00:00 2.4 0 Calma 7 Este 0 -- -- 73
2021-02-13 22:00:00 5.2 2 Este 17 Este 0 -- -- 59
2021-02-13 21:00:00 7.7 9 Nordeste 18 Nordeste 0 -- -- 46
2021-02-13 20:00:00 9.1 9 Nordeste 25 Nordeste 0 -- -- 44
2021-02-13 19:00:00 9.6 8 Norte 24 Norte 0 -- -- 40
2021-02-13 18:00:00 10.5 15 Nordeste 28 Nordeste 0 -- -- 38
2021-02-13 17:00:00 11.7 14 Este 24 Este 0 -- -- 37
2021-02-13 16:00:00 12.7 10 Oeste 21 Sudoeste 0 -- -- 47
2021-02-13 15:00:00 14.7 14 Sudoeste 22 Sudoeste 0 -- -- 43
2021-02-13 14:00:00 14.5 7 Oeste 19 Sudoeste 0 -- -- 35
2021-02-13 13:00:00 12.8 11 Sudoeste 23 Sudoeste 0 -- -- 44
2021-02-13 08:00:00 -- -- -- -- -- -- -- -- --
2021-02-13 07:00:00 1 4 Sur 11 Nordeste 0 -- -- 85
2021-02-13 06:00:00 1.6 0 Calma 12 Oeste 0 -- -- 83
2021-02-13 05:00:00 3.4 3 Norte 14 Norte 0 -- -- 75
2021-02-13 04:00:00 6.2 6 Nordeste 36 Oeste 0 -- -- 61
2021-02-13 03:00:00 7.5 11 Oeste 33 Noroeste 0 -- -- 55
2021-02-13 02:00:00 6 4 Oeste 20 Noroeste 0 -- -- 65
2021-02-13 01:00:00 7.7 8 Norte 29 Norte 0 -- -- 58
2021-02-13 00:00:00 7.5 6 Noroeste 26 Este 0 -- -- 62
2021-02-12 23:00:00 8 9 Oeste 27 Norte 0 -- -- 62
2021-02-12 22:00:00 8.4 13 Nordeste 37 Nordeste 0 -- -- 59
2021-02-12 21:00:00 6.1 5 Oeste 13 Nordeste 0 -- -- 87
2021-02-12 20:00:00 6 3 Este 12 Este 0 -- -- 94
2021-02-12 19:00:00 5.9 5 Este 12 Este 0.2 -- -- 98
2021-02-12 18:00:00 6.9 4 Nordeste 16 Sudoeste 0 -- -- 98
2021-02-12 17:00:00 6.8 6 Sudoeste 16 Sudoeste 0 -- -- 98
2021-02-12 16:00:00 6.9 3 Sur 9 Sur 0.2 -- -- 98
2021-02-12 15:00:00 6.8 0 Calma 5 Este 1.2 -- -- 97
2021-02-12 14:00:00 6.8 2 Este 5 Sudoeste 0.2 -- -- 96
2021-02-12 13:00:00 6 0 Calma 5 Sudeste 0.4 -- -- 100
2021-02-12 12:00:00 4.4 0 Calma 5 Sudeste 0.4 -- -- 100
2021-02-12 11:00:00 3.4 2 Nordeste 5 Sudeste 0.6 -- -- 99
2021-02-12 10:00:00 2.4 0 Calma 5 Sudeste 0 -- -- 97
2021-02-12 09:00:00 1.8 2 Sudoeste 8 Sur 0 -- -- 99
2021-02-12 08:00:00 1.2 2 Nordeste 9 Sur 0 -- -- 100
2021-02-12 07:00:00 0.7 0 Calma 8 Sudeste 0 -- -- 100
2021-02-12 06:00:00 0 0 Calma 5 Sudeste 0 -- -- 100
2021-02-12 05:00:00 -0.8 2 Oeste 4 Noroeste 0 -- -- 100
2021-02-12 04:00:00 -1 2 Este 4 Este 0 -- -- 99
2021-02-12 03:00:00 -1 0 Calma 6 Sudeste 0 -- -- 98
2021-02-12 02:00:00 -1 3 Sur 6 Sudoeste 0 -- -- 97
2021-02-12 01:00:00 -0.6 0 Calma 4 Norte 0 -- -- 96
2021-02-12 00:00:00 -0.3 0 Calma 7 Sudeste 0 -- -- 95
2021-02-11 23:00:00 0.2 0 Calma 5 Sudeste 0 -- -- 95
2021-02-11 22:00:00 0.5 2 Este 6 Sudeste 0 -- -- 93
2021-02-11 21:00:00 1.1 0 Calma 4 Sudeste 0 -- -- 91
2021-02-11 20:00:00 2.1 0 Calma 4 Este 0 -- -- 88
2021-02-11 19:00:00 3.5 0 Calma 4 Sudeste 0 -- -- 84
2021-02-11 18:00:00 6.7 2 Sudoeste 7 Sur 0 -- -- 71
2021-02-11 17:00:00 11.5 2 Sudoeste 8 Sur 0 -- -- 55
2021-02-11 16:00:00 11.7 3 Sudoeste 18 Sudoeste 0 -- -- 53
2021-02-11 15:00:00 12.5 12 Sudoeste 24 Oeste 0 -- -- 45
2021-02-11 14:00:00 10.9 4 Sudeste 5 Sudeste 0 -- -- 59
2021-02-11 13:00:00 8.2 0 Calma 8 Este 0 -- -- 52
2021-02-11 12:00:00 5.5 2 Sur 9 Sudoeste 0 -- -- 63
2021-02-11 11:00:00 2.2 6 Este 13 Sudoeste 0 -- -- 73
2021-02-11 10:00:00 -2.1 2 Sur 6 Sudoeste 0 -- -- 100
2021-02-11 09:00:00 -4.8 2 Sur 5 Sudoeste 0 -- -- 97
2021-02-11 08:00:00 -4.9 2 Nordeste 5 Nordeste 0 -- -- 98
2021-02-11 07:00:00 -4.9 0 Calma 3 Este 0 -- -- 97
2021-02-11 06:00:00 -4.4 0 Calma 4 Norte 0 -- -- 97
2021-02-11 05:00:00 -4.2 2 Sudeste 5 Este 0 -- -- 97
2021-02-11 04:00:00 -3.9 2 Nordeste 5 Norte 0 -- -- 97
2021-02-11 03:00:00 -3.4 0 Calma 5 Este 0 -- -- 96
2021-02-11 02:00:00 -3.1 2 Este 7 Sudeste 0 -- -- 96
2021-02-11 01:00:00 -2.8 0 Calma 5 Noroeste 0 -- -- 96
2021-02-11 00:00:00 -2.3 0 Calma 10 Sudeste 0 -- -- 95
2021-02-10 23:00:00 -1.7 2 Este 4 Nordeste 0.2 -- -- 94
2021-02-10 22:00:00 -0.7 3 Norte 6 Sur 0 -- -- 90
2021-02-10 21:00:00 0.7 3 Sudeste 9 Sudoeste 0 -- -- 86
2021-02-10 20:00:00 3.2 8 Este 17 Este 0 -- -- 72
2021-02-10 19:00:00 4.2 6 Nordeste 15 Nordeste 0 -- -- 67
2021-02-10 18:00:00 3.9 3 Este 10 Sur 0 -- -- 80
2021-02-10 17:00:00 6.9 3 Sudoeste 18 Este 0 -- -- 73
2021-02-10 16:00:00 7.5 16 Este 26 Este 0 -- -- 60
2021-02-10 15:00:00 9.4 6 Oeste 9 Sudoeste 0 -- -- 52
2021-02-10 14:00:00 8.9 2 Sudeste 7 Oeste 0 -- -- 65
2021-02-10 13:00:00 7.1 3 Sudeste 10 Oeste 0 -- -- 73
2021-02-10 12:00:00 5 2 Este 9 Sudoeste 0 -- -- 81
2021-02-10 11:00:00 3.8 3 Sudeste 6 Sudeste 0 -- -- 92
2021-02-10 10:00:00 0.6 0 Calma 5 Este 0 -- -- 100
2021-02-10 09:00:00 0 0 Calma 6 Nordeste 0 -- -- 100
2021-02-10 08:00:00 -0.4 4 Sur 11 Sudoeste 0 -- -- 100
2021-02-10 07:00:00 -0.3 2 Sudoeste 6 Este 0 -- -- 100
2021-02-10 06:00:00 0 4 Este 17 Sudoeste 0 -- -- 100
2021-02-10 05:00:00 0.1 2 Oeste 8 Norte 0 -- -- 100
2021-02-10 04:00:00 0.2 0 Calma 6 Este 0.2 -- -- 100
2021-02-10 03:00:00 0.2 3 Sudoeste 9 Sudoeste 0 -- -- 100
2021-02-10 02:00:00 0.3 5 Nordeste 9 Oeste 0 -- -- 100
2021-02-10 01:00:00 0.1 0 Calma 5 Sudeste 0 -- -- 100
2021-02-10 00:00:00 0.2 4 Oeste 9 Norte 0 -- -- 100
2021-02-09 23:00:00 0.2 0 Calma 5 Oeste 0 -- -- 100
2021-02-09 22:00:00 0.2 3 Nordeste 5 Sudeste 0.2 -- -- 100
2021-02-09 21:00:00 0.2 3 Norte 8 Sudoeste 1.2 -- -- 100
2021-02-09 20:00:00 0.2 0 Calma 6 Sur 0.8 -- -- 100
2021-02-09 19:00:00 0.2 0 Calma 2 Nordeste 3 -- -- 99
2021-02-09 18:00:00 0.4 0 Calma 0 Calma 3.2 -- -- 98
2021-02-09 17:00:00 0.6 0 Calma 4 Nordeste 2.4 -- -- 97
2021-02-09 16:00:00 0.9 0 Calma 2 Este 2.6 -- -- 96
2021-02-09 15:00:00 1.5 3 Este 10 Nordeste 1.6 -- -- 95
2021-02-09 14:00:00 2.2 8 Sudoeste 19 Sudoeste 0.8 -- -- 95
2021-02-09 13:00:00 2.1 11 Sudoeste 17 Sudoeste 0.2 -- -- 93
2021-02-09 12:00:00 2.2 0 Calma 5 Sudoeste 0 -- -- 87
2021-02-09 11:00:00 0.7 2 Sudoeste 10 Nordeste 0 -- -- 95
2021-02-09 10:00:00 -0.4 3 Sudeste 15 Sudoeste 0 -- -- 98
2021-02-09 09:00:00 -1.9 2 Norte 4 Sudeste 0 -- -- 99
2021-02-09 08:00:00 -2.4 2 Este 5 Sudeste 0 -- -- 98
2021-02-09 07:00:00 -2.5 3 Este 9 Sur 0 -- -- 98
2021-02-09 06:00:00 -2.8 5 Oeste 8 Sudeste 0 -- -- 99
2021-02-09 05:00:00 -2.8 2 Norte 6 Este 0 -- -- 98
2021-02-09 04:00:00 -2.3 3 Norte 6 Noroeste 0 -- -- 98
2021-02-09 03:00:00 -1.7 3 Sudoeste 14 Nordeste 0 -- -- 99
2021-02-09 02:00:00 -1.7 3 Noroeste 7 Noroeste 0 -- -- 100
2021-02-09 01:00:00 -1.3 0 Calma 5 Este 0 -- -- 99
2021-02-09 00:00:00 -0.7 0 Calma 5 Sudeste 0 -- -- 99
2021-02-08 23:00:00 -0.7 0 Calma 4 Este 0 -- -- 98
2021-02-08 22:00:00 0 2 Oeste 4 Sudeste 0 -- -- 95
2021-02-08 21:00:00 1.3 0 Calma 5 Sudeste 0 -- -- 95
2021-02-08 20:00:00 2.5 0 Calma 4 Norte 0 -- -- 93
2021-02-08 19:00:00 3.8 0 Calma 4 Norte 0 -- -- 92
2021-02-08 18:00:00 4.1 0 Calma 8 Oeste 0 -- -- 89
2021-02-08 17:00:00 4.2 6 Sudoeste 17 Oeste 0 -- -- 90
2021-02-08 16:00:00 4 4 Norte 11 Sudoeste 0 -- -- 91
2021-02-08 15:00:00 3.1 9 Sudoeste 20 Oeste 0.6 -- -- 93
2021-02-08 14:00:00 3.2 11 Oeste 20 Oeste 0.2 -- -- 91
2021-02-08 13:00:00 3.2 5 Sur 11 Sudoeste 0 -- -- 90
2021-02-08 12:00:00 2.6 9 Sudoeste 18 Sudoeste 0 -- -- 90
2021-02-08 11:00:00 1.9 3 Sur 8 Sur 0 -- -- 93
2021-02-08 10:00:00 0.9 3 Sudoeste 10 Norte 0 -- -- 95
2021-02-08 09:00:00 0.3 7 Sur 19 Sudoeste 0 -- -- 94
2021-02-08 08:00:00 -0.6 2 Sur 6 Este 0 -- -- 96
2021-02-08 07:00:00 -0.7 0 Calma 5 Oeste 0 -- -- 96
2021-02-08 06:00:00 -1.2 0 Calma 6 Sudeste 0 -- -- 96
2021-02-08 05:00:00 -1.8 2 Noroeste 6 Nordeste 0 -- -- 95
2021-02-08 04:00:00 -1.7 4 Sudoeste 8 Oeste 0 -- -- 95
2021-02-08 03:00:00 -1.5 2 Oeste 6 Sur 0 -- -- 95
2021-02-08 02:00:00 -1.5 0 Calma 4 Este 0 -- -- 93
2021-02-08 01:00:00 -0.8 0 Calma 4 Este 0 -- -- 91
2021-02-08 00:00:00 0.2 3 Oeste 4 Sudoeste 0 -- -- 89
2021-02-07 23:00:00 0.9 0 Calma 4 Sudoeste 0 -- -- 87
2021-02-07 22:00:00 1.6 3 Nordeste 6 Sudoeste 0 -- -- 84
2021-02-07 21:00:00 2.9 0 Calma 5 Nordeste 0 -- -- 79
2021-02-07 20:00:00 3.7 4 Este 13 Oeste 0 -- -- 70
2021-02-07 19:00:00 5.1 6 Oeste 14 Sur 0 -- -- 61
2021-02-07 18:00:00 6.7 8 Sudoeste 17 Sudoeste 0 -- -- 55
2021-02-07 17:00:00 8.1 9 Nordeste 14 Este 0 -- -- 35
2021-02-07 16:00:00 9.1 5 Este 16 Este 0 -- -- 29
2021-02-07 15:00:00 8.9 10 Este 23 Norte 0 -- -- 30
2021-02-07 14:00:00 9 13 Este 29 Nordeste 0 -- -- 29
2021-02-07 13:00:00 8.1 17 Nordeste 31 Este 0 -- -- 25
2021-02-07 12:00:00 7.4 17 Nordeste 33 Este 0 -- -- 24
2021-02-07 11:00:00 5.8 21 Este 37 Este 0 -- -- 25
2021-02-07 10:00:00 4 20 Este 38 Este 0 -- -- 31
2021-02-07 09:00:00 3.4 19 Nordeste 38 Nordeste 0 -- -- 51
2021-02-07 08:00:00 3.7 12 Nordeste 26 Este 0 -- -- 63
2021-02-07 07:00:00 2.5 0 Calma 6 Noroeste 0 -- -- 97
2021-02-07 06:00:00 2.9 2 Oeste 4 Sudoeste 0 -- -- 100
2021-02-07 05:00:00 3 0 Calma 5 Norte 0 -- -- 100
2021-02-07 04:00:00 2.8 2 Nordeste 4 Este 0.2 -- -- 100
2021-02-07 03:00:00 2.7 2 Norte 4 Norte 0 -- -- 100
2021-02-07 02:00:00 2.6 2 Norte 6 Norte 0 -- -- 100
2021-02-07 01:00:00 2.8 0 Calma 4 Sur 0 -- -- 97
2021-02-07 00:00:00 3.6 0 Calma 4 Nordeste 0 -- -- 97
2021-02-06 23:00:00 3.8 3 Noroeste 6 Norte 0 -- -- 96
2021-02-06 22:00:00 4.4 5 Nordeste 10 Nordeste 0.6 -- -- 91
2021-02-06 21:00:00 4.8 4 Noroeste 16 Oeste 1.8 -- -- 93
2021-02-06 20:00:00 4.6 0 Calma 3 Sudeste 0 -- -- 96
2021-02-06 19:00:00 5.1 0 Calma 5 Oeste 0 -- -- 93
2021-02-06 18:00:00 6 3 Norte 8 Norte 1.2 -- -- 91
2021-02-06 17:00:00 6.7 0 Calma 19 Sudoeste 1.4 -- -- 86
2021-02-06 16:00:00 8.4 17 Oeste 33 Oeste 1 -- -- 74
2021-02-06 15:00:00 9.4 4 Noroeste 14 Oeste 0.6 -- -- 77
2021-02-06 14:00:00 8.6 4 Sudoeste 12 Oeste 0.2 -- -- 79
2021-02-06 13:00:00 7.8 8 Oeste 21 Sudoeste 0 -- -- 83
2021-02-06 12:00:00 7.9 8 Sudoeste 29 Oeste 0.4 -- -- 85
2021-02-06 11:00:00 8.7 3 Sur 30 Sudoeste 0.6 -- -- 81
2021-02-06 10:00:00 10 13 Oeste 30 Oeste 0 -- -- 67
2021-02-06 09:00:00 10.4 14 Oeste 33 Oeste 0 -- -- 62
2021-02-06 08:00:00 8.3 8 Oeste 31 Oeste 0 -- -- 66
2021-02-06 07:00:00 8.2 10 Sudoeste 29 Oeste 0 -- -- 66
2021-02-06 06:00:00 7.2 6 Noroeste 14 Sur 0 -- -- 79
2021-02-06 05:00:00 8 4 Sur 14 Nordeste 0 -- -- 76
2021-02-06 04:00:00 8.7 5 Noroeste 33 Nordeste 0 -- -- 70
2021-02-06 03:00:00 7.2 6 Sudeste 16 Este 0.2 -- -- 72
2021-02-06 02:00:00 6.9 4 Este 16 Oeste 0 -- -- 72
2021-02-06 01:00:00 5.8 5 Nordeste 10 Noroeste 0 -- -- 78
2021-02-06 00:00:00 5.7 3 Este 11 Sudoeste 0 -- -- 77
2021-02-05 23:00:00 5.9 3 Este 9 Noroeste 0 -- -- 75
2021-02-05 22:00:00 7.2 2 Este 9 Sudeste 0 -- -- 73
2021-02-05 21:00:00 7.9 0 Calma 11 Sudeste 0 -- -- 72
2021-02-05 20:00:00 8.6 2 Sudoeste 9 Sur 0 -- -- 69
2021-02-05 19:00:00 10.6 5 Noroeste 10 Sudeste 0 -- -- 63
2021-02-05 18:00:00 12.9 4 Sur 12 Sudoeste 0 -- -- 53
2021-02-05 17:00:00 15.2 9 Oeste 17 Oeste 0 -- -- 36
2021-02-05 16:00:00 16.1 5 Este 20 Sudoeste 0 -- -- 35
2021-02-05 15:00:00 15.8 9 Oeste 25 Oeste 0 -- -- 38
2021-02-05 14:00:00 15.8 12 Oeste 27 Sudoeste 0 -- -- 38
2021-02-05 13:00:00 16.9 10 Sudoeste 20 Oeste 0 -- -- 38
2021-02-05 12:00:00 10.9 5 Oeste 12 Este 0 -- -- 64
2021-02-05 11:00:00 8.3 4 Este 12 Este 0 -- -- 75
2021-02-05 10:00:00 6.5 3 Oeste 13 Norte 0 -- -- 82
2021-02-05 09:00:00 5.5 3 Norte 17 Noroeste 0 -- -- 86
2021-02-05 08:00:00 4.3 5 Nordeste 11 Sudeste 0 -- -- 92
2021-02-05 07:00:00 3.9 2 Norte 6 Sudeste 0 -- -- 92
2021-02-05 06:00:00 4.9 0 Calma 6 Sudeste 0 -- -- 88
2021-02-05 05:00:00 6.3 3 Oeste 12 Norte 0 -- -- 86
2021-02-05 04:00:00 5.7 3 Sur 9 Oeste 0 -- -- 91
2021-02-05 03:00:00 5.9 0 Calma 5 Sudeste 0 -- -- 88
2021-02-05 02:00:00 6.6 5 Oeste 13 Nordeste 0 -- -- 82
2021-02-05 01:00:00 6.8 3 Nordeste 14 Nordeste 0 -- -- 77
2021-02-05 00:00:00 5.5 4 Noroeste 8 Noroeste 0 -- -- 86
2021-02-04 23:00:00 5 0 Calma 6 Este 0 -- -- 89
2021-02-04 22:00:00 5 0 Calma 7 Sudeste 0 -- -- 88
2021-02-04 21:00:00 5.8 0 Calma 6 Sudeste 0 -- -- 85
2021-02-04 20:00:00 6.7 3 Oeste 5 Sudeste 0 -- -- 82
2021-02-04 19:00:00 8.8 0 Calma 5 Este 0 -- -- 75
2021-02-04 18:00:00 11.7 2 Este 14 Oeste 0 -- -- 61
2021-02-04 17:00:00 12.8 9 Oeste 19 Oeste 0 -- -- 60
2021-02-04 16:00:00 13.4 10 Sudoeste 18 Oeste 0 -- -- 60
2021-02-04 15:00:00 13.5 9 Sudoeste 16 Sudoeste 0 -- -- 58
2021-02-04 14:00:00 12.8 11 Sudoeste 21 Oeste 0 -- -- 61
2021-02-04 13:00:00 10.9 3 Nordeste 22 Oeste 0 -- -- 67
2021-02-04 12:00:00 10.1 14 Oeste 24 Oeste 0 -- -- 68
2021-02-04 11:00:00 8.4 2 Sudeste 6 Sudeste 0 -- -- 81
2021-02-04 10:00:00 6 0 Calma 7 Sudeste 0 -- -- 90
2021-02-04 09:00:00 4.3 3 Sudoeste 6 Sudoeste 0 -- -- 97
2021-02-04 08:00:00 3.5 0 Calma 6 Norte 0 -- -- 95
2021-02-04 07:00:00 3.6 3 Nordeste 6 Oeste 0 -- -- 95
2021-02-04 06:00:00 3.2 4 Sudoeste 8 Oeste 0 -- -- 98
2021-02-04 05:00:00 2.5 3 Norte 5 Sudeste 0 -- -- 97
2021-02-04 04:00:00 2.8 0 Calma 5 Este 0 -- -- 96
2021-02-04 03:00:00 3.1 0 Calma 4 Sudeste 0 -- -- 94
2021-02-04 02:00:00 3.4 0 Calma 2 Este 0 -- -- 94
2021-02-04 01:00:00 3.9 2 Este 5 Sudeste 0 -- -- 92
2021-02-04 00:00:00 4.6 3 Norte 6 Sudeste 0 -- -- 90